Nearby METAR Reports

 

KOGD - Ogden, Utah, USA
Distance from station: NNW 6mi, 10km
Updated: Tue, 20-Feb-2024 5:53pm MST
Mostly cloudy
Mostly cloudy
 Wind from NNE
Wind: NNE 3 mph , 6 km/h
Temperature: 46°F , 8°C
Dew Point: 37°F , 3°C
Humidity: 71%
Barometer: 30.06 inHg , 1017.9 hPa
Clouds: Mostly cloudy
Visibility: 10 miles , 16 km
Cloud details: Partly cloudy 7500 ft
Mostly cloudy 12000 ft
2024/02/21 00:53 KOGD 210053Z 03003KT 10SM SCT075 BKN120 08/03 A3006 RMK AO2 SLP170 T00780033
KSLC - Salt Lake City, Utah, USA
Distance from station: S 24mi, 39km
Updated: Tue, 20-Feb-2024 5:54pm MST
Overcast
Overcast
 Wind from N
Wind: N 6 mph , 9 km/h
Temperature: 46°F , 8°C
Wind Chill: 43°F , 6°C
Dew Point: 39°F , 4°C
Humidity: 76%
Barometer: 30.06 inHg , 1017.9 hPa
Clouds: Overcast
Visibility: 10 miles , 16 km
Cloud details: Partly cloudy 2700 ft
Mostly cloudy 5000 ft
Overcast 9000 ft
2024/02/21 00:54 KSLC 210054Z 35005KT 10SM SCT027 BKN050 OVC090 08/04 A3006 RMK AO2 RAB37E48 SLP172 VCSH P0000 T00830044
 
KBMC - Brigham City, Utah, USA
Distance from station: N 30mi, 49km
Updated: Tue, 20-Feb-2024 5:50pm MST
Clear
Clear
 Wind from NW
Wind: NW 5 mph , 7 km/h
Temperature: 43°F , 6°C
Wind Chill: 40°F , 4°C
Dew Point: 37°F , 3°C
Humidity: 81%
Barometer: 30.09 inHg , 1019 hPa
Clouds: Clear
Visibility: 10 miles , 16 km
2024/02/21 00:50 KBMC 210050Z AUTO 32004KT 10SM CLR 06/03 A3009 RMK AO1 T00630025
KU42 - Salt Lake Muni, Utah, USA
Distance from station: S 35mi, 56km
Updated: Tue, 20-Feb-2024 5:55pm MST
Overcast
Overcast
 Wind from SSW
Wind: SSW 7 mph , 11 km/h
Temperature: 46°F , 8°C
Wind Chill: 42°F , 6°C
Dew Point: 37°F , 3°C
Humidity: 71%
Barometer: 30.07 inHg , 1018.3 hPa
Clouds: Overcast
Visibility: 10 miles , 16 km
Cloud details: Partly cloudy 4000 ft
Partly cloudy 5500 ft
Overcast 8000 ft
2024/02/21 00:55 KU42 210055Z AUTO 20006KT 10SM SCT040 SCT055 OVC080 08/03 A3007 RMK AO1 T00820033
 
KTVY - Tooele, Utah, USA
Distance from station: SSW 40mi, 64km
Updated: Tue, 20-Feb-2024 6:15pm MST
Light drizzle, Overcast
Light drizzle, Overcast
 Wind from calm
Wind: Calm
Temperature: 41°F , 5°C
Dew Point: 39°F , 4°C
Humidity: 93%
Barometer: 30.07 inHg , 1018.3 hPa
Summary: Light Drizzle
Clouds: Overcast
Visibility: 10 miles , 16 km
Cloud details: Partly cloudy 1600 ft
Mostly cloudy 4300 ft
Overcast 6000 ft
2024/02/21 01:15 KTVY 210115Z AUTO 00000KT 10SM -DZ SCT016 BKN043 OVC060 05/04 A3007 RMK AO2
KLGU - Logan, Utah, USA
Distance from station: N 46mi, 75km
Updated: Tue, 20-Feb-2024 5:51pm MST
Clear
Clear
 Wind from calm
Wind: Calm
Temperature: 37°F , 3°C
Dew Point: 34°F , 1°C
Humidity: 87%
Barometer: 30.09 inHg , 1019 hPa
Clouds: Clear
Visibility: 10 miles , 16 km
2024/02/21 00:51 KLGU 210051Z AUTO 00000KT 10SM CLR 03/01 A3009 RMK AO2 SLP193 T00330006
 
KEVW - Evanston, Wyoming, USA
Distance from station: ENE 50mi, 80km
Updated: Tue, 20-Feb-2024 6:06pm MST
Overcast
Overcast
 Wind from calm
Wind: Calm
Temperature: 34°F , 1°C
Dew Point: 30°F , -1°C
Humidity: 87%
Barometer: 30.09 inHg , 1019 hPa
Clouds: Overcast
Visibility: 10 miles , 16 km
Cloud details: Partly cloudy 600 ft
Overcast 10000 ft
2024/02/21 01:06 KEVW 210106Z AUTO 00000KT 10SM SCT006 OVC100 01/M01 A3009 RMK AO2 T00111006